Time;durP1;ratioP1;P1;durP2;ratioP2;P2;SDS_P1;SDS_P2;PMS_P1;PMS_P2;Temp;Humidity;BMP_temperature;BMP_pressure;BME280_temperature;BME280_humidity;BME280_pressure;Samples;Min_cycle;Max_cycle;Signal;HPM_P1;HPM_P2
2021/05/07 00:00:56;;;;;;;36.05;27.83;;;7.20;99.90;;;;;;5023228;28;20054;-80
2021/05/07 00:03:22;;;;;;;36.05;27.98;;;7.10;99.90;;;;;;5022269;28;20130;-80
2021/05/07 00:05:54;;;;;;;37.22;28.33;;;7.00;99.90;;;;;;5022556;28;20092;-79
2021/05/07 00:08:21;;;;;;;34.38;25.58;;;7.00;99.90;;;;;;5022382;28;20045;-79
2021/05/07 00:10:48;;;;;;;31.63;24.00;;;7.00;99.90;;;;;;5022098;28;20121;-79
2021/05/07 00:13:15;;;;;;;29.30;22.73;;;6.90;99.90;;;;;;5022671;28;20058;-80
2021/05/07 00:15:41;;;;;;;30.85;23.52;;;6.90;99.90;;;;;;5022680;28;20514;-80
2021/05/07 00:18:08;;;;;;;29.95;23.50;;;6.90;99.90;;;;;;5021007;28;20072;-79
2021/05/07 00:20:35;;;;;;;31.27;23.38;;;6.90;99.90;;;;;;5021686;28;20118;-79
2021/05/07 00:23:02;;;;;;;31.77;22.77;;;6.80;99.90;;;;;;5021271;28;20510;-79
2021/05/07 00:25:28;;;;;;;30.30;23.92;;;6.80;99.90;;;;;;5021690;28;20053;-79
2021/05/07 00:28:03;;;;;;;33.90;25.63;;;6.80;99.90;;;;;;5019542;28;20074;-81
2021/05/07 00:30:29;;;;;;;31.13;23.77;;;6.70;99.90;;;;;;5020888;28;20113;-81
2021/05/07 00:32:56;;;;;;;32.85;24.83;;;6.70;99.90;;;;;;5020791;28;20075;-79
2021/05/07 00:35:22;;;;;;;34.05;24.95;;;6.50;99.90;;;;;;5020425;28;20426;-80
2021/05/07 00:37:49;;;;;;;38.33;26.45;;;6.40;99.90;;;;;;5019837;28;20689;-81
2021/05/07 00:40:16;;;;;;;38.13;27.30;;;6.40;99.90;;;;;;5019283;28;20077;-81
2021/05/07 00:42:43;;;;;;;39.70;27.88;;;6.40;99.90;;;;;;5019742;28;20049;-80
2021/05/07 00:45:13;;;;;;;41.90;28.88;;;6.40;99.90;;;;;;5019636;28;20589;-81
2021/05/07 00:47:46;;;;;;;37.78;28.42;;;6.50;99.90;;;;;;5019855;28;20057;-81
2021/05/07 00:50:13;;;;;;;39.15;27.95;;;6.40;99.90;;;;;;5021834;28;20148;-81
2021/05/07 00:52:39;;;;;;;38.25;28.25;;;6.50;99.90;;;;;;5021263;28;20113;-81
2021/05/07 00:55:07;;;;;;;33.83;26.30;;;6.40;99.90;;;;;;5019811;28;20153;-81
2021/05/07 00:57:35;;;;;;;35.97;25.95;;;6.50;99.90;;;;;;5023116;28;20081;-80
2021/05/07 01:00:01;;;;;;;36.33;26.70;;;6.50;99.90;;;;;;5030320;28;20049;-80
2021/05/07 01:02:28;;;;;;;40.28;27.70;;;6.50;99.90;;;;;;5025961;28;20073;-81
2021/05/07 01:04:55;;;;;;;37.58;26.58;;;6.40;99.90;;;;;;5028750;28;20076;-81
2021/05/07 01:07:21;;;;;;;35.42;26.30;;;6.40;99.90;;;;;;5037841;28;20069;-81
2021/05/07 01:09:49;;;;;;;34.83;24.15;;;6.40;99.90;;;;;;5036847;28;20056;-81
2021/05/07 01:12:16;;;;;;;34.50;25.33;;;6.40;99.90;;;;;;5036648;28;20034;-80
2021/05/07 01:14:43;;;;;;;32.47;24.35;;;6.40;99.90;;;;;;5035359;28;20065;-80
2021/05/07 01:17:10;;;;;;;37.20;25.35;;;6.30;99.90;;;;;;5031536;28;20137;-81
2021/05/07 01:19:37;;;;;;;36.45;25.83;;;6.30;99.90;;;;;;5022832;28;20100;-81
2021/05/07 01:22:04;;;;;;;38.67;26.25;;;6.20;99.90;;;;;;5024471;28;20054;-81
2021/05/07 01:24:31;;;;;;;33.85;24.13;;;6.20;99.90;;;;;;5022756;28;20495;-81
2021/05/07 01:26:58;;;;;;;33.25;24.65;;;6.40;99.90;;;;;;5021401;28;20050;-81
2021/05/07 01:29:24;;;;;;;33.78;23.15;;;6.40;99.90;;;;;;5021363;28;20073;-81
2021/05/07 01:31:54;;;;;;;36.35;25.00;;;6.50;99.90;;;;;;5020528;28;20081;-81
2021/05/07 01:34:21;;;;;;;37.42;25.45;;;6.40;99.90;;;;;;5023885;28;20077;-80
2021/05/07 01:36:48;;;;;;;37.63;27.27;;;6.40;99.90;;;;;;5020817;28;20054;-81
2021/05/07 01:39:15;;;;;;;41.35;28.17;;;6.40;99.90;;;;;;5020942;28;20444;-81
2021/05/07 01:41:42;;;;;;;42.40;29.20;;;6.40;99.90;;;;;;5023098;28;20046;-80
2021/05/07 01:44:08;;;;;;;39.15;28.00;;;6.40;99.90;;;;;;5022786;28;20077;-80
2021/05/07 01:46:35;;;;;;;43.97;29.42;;;6.40;99.90;;;;;;5020592;28;20072;-80
2021/05/07 01:49:01;;;;;;;45.22;29.88;;;6.40;99.90;;;;;;5020161;28;20046;-80
2021/05/07 01:51:28;;;;;;;48.65;31.08;;;6.50;99.90;;;;;;5020920;28;20199;-80
2021/05/07 01:53:54;;;;;;;48.58;30.80;;;6.50;99.90;;;;;;5019532;28;20160;-77
2021/05/07 01:56:21;;;;;;;46.83;31.73;;;6.50;99.90;;;;;;5016355;28;20144;-78
2021/05/07 01:58:48;;;;;;;48.08;31.90;;;6.50;99.90;;;;;;5018344;28;20076;-80
2021/05/07 02:01:14;;;;;;;48.78;31.70;;;6.50;99.90;;;;;;5019901;28;20109;-81
2021/05/07 02:03:40;;;;;;;47.53;31.50;;;6.50;99.90;;;;;;5019963;28;20136;-81
2021/05/07 02:06:07;;;;;;;48.78;31.52;;;6.50;99.90;;;;;;5019195;28;20054;-79
2021/05/07 02:08:33;;;;;;;50.10;32.15;;;6.50;99.90;;;;;;5019486;28;20048;-80
2021/05/07 02:11:26;;;;;;;50.53;32.83;;;6.40;99.90;;;;;;5019169;28;20046;-80
2021/05/07 02:13:52;;;;;;;48.92;32.85;;;6.40;99.90;;;;;;5019686;28;20069;-80
2021/05/07 02:16:19;;;;;;;53.72;35.05;;;6.30;99.90;;;;;;5017970;28;20470;-80
2021/05/07 02:18:45;;;;;;;57.08;35.03;;;6.30;99.90;;;;;;5019719;28;20133;-80
2021/05/07 02:21:11;;;;;;;57.95;36.70;;;6.30;99.90;;;;;;5018691;28;20081;-80
2021/05/07 02:23:38;;;;;;;57.15;34.75;;;6.30;99.90;;;;;;5019551;28;20056;-82
2021/05/07 02:26:05;;;;;;;54.47;34.80;;;6.30;99.90;;;;;;5021678;28;20085;-81
2021/05/07 02:28:32;;;;;;;54.67;35.22;;;6.20;99.90;;;;;;5021234;28;20129;-82
2021/05/07 02:30:58;;;;;;;55.22;35.72;;;6.20;99.90;;;;;;5021594;28;20050;-81
2021/05/07 02:33:25;;;;;;;56.20;35.92;;;6.20;99.90;;;;;;5021217;28;20085;-81
2021/05/07 02:35:51;;;;;;;54.65;36.35;;;6.20;99.90;;;;;;5024680;28;20104;-80
2021/05/07 02:38:17;;;;;;;55.42;34.08;;;6.10;99.90;;;;;;5026347;28;20045;-81
2021/05/07 02:40:44;;;;;;;54.83;33.60;;;6.10;99.90;;;;;;5024018;28;20192;-81
2021/05/07 02:43:10;;;;;;;58.00;35.72;;;6.00;99.90;;;;;;5019309;28;20046;-82
2021/05/07 02:45:37;;;;;;;56.90;34.95;;;6.00;99.90;;;;;;5017626;28;20099;-79
2021/05/07 02:48:05;;;;;;;60.58;38.30;;;6.00;99.90;;;;;;5017769;28;20511;-81
2021/05/07 02:50:31;;;;;;;61.30;38.28;;;5.90;99.90;;;;;;5018416;28;20050;-80
2021/05/07 02:52:58;;;;;;;67.90;40.20;;;5.80;99.90;;;;;;5017697;28;20057;-81
2021/05/07 02:55:24;;;;;;;68.47;39.88;;;5.70;99.90;;;;;;5018770;28;20136;-80
2021/05/07 02:57:50;;;;;;;60.97;38.28;;;5.70;99.90;;;;;;5016990;28;20081;-81
2021/05/07 03:00:18;;;;;;;63.28;40.17;;;5.70;99.90;;;;;;5017012;28;20054;-81
2021/05/07 03:02:45;;;;;;;66.75;39.45;;;5.60;99.90;;;;;;5017737;28;20049;-80
2021/05/07 03:05:12;;;;;;;67.68;40.83;;;5.60;99.90;;;;;;5018920;28;20128;-80
2021/05/07 03:07:39;;;;;;;63.20;37.88;;;5.60;99.90;;;;;;5018391;28;20131;-80
2021/05/07 03:10:06;;;;;;;65.18;39.47;;;5.70;99.90;;;;;;5018542;28;20073;-80
2021/05/07 03:12:32;;;;;;;74.57;42.90;;;5.60;99.90;;;;;;5019380;28;20517;-81
2021/05/07 03:14:58;;;;;;;66.75;41.20;;;5.60;99.90;;;;;;5019404;28;20123;-80
2021/05/07 03:17:25;;;;;;;66.35;39.58;;;5.60;99.90;;;;;;5018286;28;20046;-80
2021/05/07 03:19:52;;;;;;;66.68;41.00;;;5.60;99.90;;;;;;5019007;28;20136;-81
2021/05/07 03:22:18;;;;;;;63.22;40.20;;;5.60;99.90;;;;;;5018472;28;20046;-80
2021/05/07 03:24:45;;;;;;;70.25;42.88;;;5.60;99.90;;;;;;5019718;28;20145;-80
2021/05/07 03:27:11;;;;;;;64.35;40.63;;;5.70;99.90;;;;;;5018284;28;20057;-81
2021/05/07 03:29:37;;;;;;;66.70;39.67;;;5.70;99.90;;;;;;5018665;28;20422;-79
2021/05/07 03:32:05;;;;;;;65.35;39.47;;;5.70;99.90;;;;;;5017745;28;20053;-80
2021/05/07 03:34:32;;;;;;;68.45;41.47;;;5.70;99.90;;;;;;5016542;28;20061;-80
2021/05/07 03:36:59;;;;;;;70.40;41.42;;;5.60;99.90;;;;;;5016043;28;20140;-80
2021/05/07 03:39:26;;;;;;;70.82;43.00;;;5.60;99.90;;;;;;5015717;28;20077;-80
2021/05/07 03:41:52;;;;;;;73.55;44.25;;;5.60;99.90;;;;;;5017732;28;20089;-79
2021/05/07 03:44:18;;;;;;;73.72;44.50;;;5.50;99.90;;;;;;5015510;28;20076;-79
2021/05/07 03:46:45;;;;;;;71.38;42.53;;;5.50;99.90;;;;;;5014528;28;20134;-80
2021/05/07 03:49:11;;;;;;;70.30;42.85;;;5.50;99.90;;;;;;5013818;28;20045;-80
2021/05/07 03:51:37;;;;;;;69.43;41.60;;;5.50;99.90;;;;;;5014217;28;20121;-80
2021/05/07 03:54:06;;;;;;;74.30;42.72;;;5.50;99.90;;;;;;5016066;28;20096;-81
2021/05/07 03:56:32;;;;;;;75.65;46.78;;;5.50;99.90;;;;;;5015613;28;20050;-81
2021/05/07 03:58:58;;;;;;;74.45;45.08;;;5.50;99.90;;;;;;5013771;28;20081;-80
2021/05/07 04:01:25;;;;;;;76.28;44.95;;;5.40;99.90;;;;;;5003077;28;20125;-82
2021/05/07 04:03:51;;;;;;;75.63;44.85;;;5.40;99.90;;;;;;5005792;28;20057;-81
2021/05/07 04:06:20;;;;;;;79.05;46.13;;;5.40;99.90;;;;;;5009766;28;20073;-81
2021/05/07 04:08:54;;;;;;;82.40;49.83;;;5.40;99.90;;;;;;5016141;28;20414;-82
2021/05/07 04:11:28;;;;;;;85.05;51.70;;;5.40;99.90;;;;;;5015791;28;20385;-81
2021/05/07 04:13:54;;;;;;;90.85;52.13;;;5.40;99.90;;;;;;5015550;28;20073;-81
2021/05/07 04:16:21;;;;;;;84.18;49.33;;;5.40;99.90;;;;;;5015994;28;20124;-82
2021/05/07 04:18:47;;;;;;;78.30;46.83;;;5.40;99.90;;;;;;5014831;28;20453;-82
2021/05/07 04:21:13;;;;;;;76.13;44.78;;;5.50;99.90;;;;;;4996425;28;20133;-81
2021/05/07 04:23:40;;;;;;;73.03;45.58;;;5.60;99.90;;;;;;4997742;28;20060;-81
2021/05/07 04:26:06;;;;;;;68.40;42.13;;;5.60;99.90;;;;;;5010319;28;20057;-80
2021/05/07 04:28:33;;;;;;;72.57;43.30;;;5.70;99.90;;;;;;5018179;28;20046;-82
2021/05/07 04:31:00;;;;;;;68.82;43.47;;;5.70;99.90;;;;;;5001834;28;20093;-83
2021/05/07 04:33:26;;;;;;;70.35;45.85;;;5.70;99.90;;;;;;5019959;28;20090;-81
2021/05/07 04:35:52;;;;;;;66.00;42.60;;;5.70;99.90;;;;;;5023064;28;20054;-84
2021/05/07 04:38:19;;;;;;;65.03;41.80;;;5.70;99.90;;;;;;5032661;28;20057;-81
2021/05/07 04:40:45;;;;;;;57.75;37.65;;;5.80;99.90;;;;;;5035565;28;20049;-83
2021/05/07 04:43:11;;;;;;;55.30;37.30;;;5.90;99.90;;;;;;5035102;28;20139;-82
2021/05/07 04:45:39;;;;;;;52.90;35.17;;;6.00;99.90;;;;;;5023352;28;20473;-82
2021/05/07 04:48:12;;;;;;;53.13;35.35;;;6.20;99.90;;;;;;5021696;28;20132;-81
2021/05/07 04:50:39;;;;;;;52.83;35.63;;;6.30;99.90;;;;;;5024124;28;20049;-82
2021/05/07 04:53:05;;;;;;;48.58;34.88;;;6.50;99.90;;;;;;5025147;28;20141;-79
2021/05/07 04:55:31;;;;;;;51.03;33.95;;;6.70;99.90;;;;;;5024889;28;20049;-80
2021/05/07 04:57:58;;;;;;;48.05;32.63;;;6.90;99.90;;;;;;5020690;28;20314;-80
2021/05/07 05:00:24;;;;;;;42.33;29.55;;;7.30;99.90;;;;;;5024157;28;20622;-82
2021/05/07 05:02:51;;;;;;;40.95;30.00;;;7.40;99.90;;;;;;5023043;28;20049;-81
2021/05/07 05:05:18;;;;;;;42.03;29.73;;;7.50;99.90;;;;;;5018205;28;20128;-79
2021/05/07 05:07:52;;;;;;;45.60;31.95;;;7.50;99.90;;;;;;5017495;28;20633;-80
2021/05/07 05:10:18;;;;;;;41.03;28.98;;;7.60;99.90;;;;;;5018929;28;20053;-79
2021/05/07 05:12:45;;;;;;;38.42;28.98;;;7.90;99.90;;;;;;5018666;28;20132;-80
2021/05/07 05:15:13;;;;;;;38.88;28.92;;;8.20;99.90;;;;;;5018742;28;20133;-80
2021/05/07 05:17:39;;;;;;;44.45;30.83;;;8.40;99.90;;;;;;5017382;28;20073;-82
2021/05/07 05:20:08;;;;;;;39.78;28.52;;;8.50;99.90;;;;;;5017256;28;20045;-79
2021/05/07 05:22:35;;;;;;;42.20;30.60;;;8.50;99.90;;;;;;5015159;28;20060;-80
2021/05/07 05:25:04;;;;;;;43.67;29.67;;;8.70;99.90;;;;;;5016561;28;20141;-79
2021/05/07 05:27:31;;;;;;;40.30;30.52;;;8.70;99.90;;;;;;5016694;28;20092;-80
2021/05/07 05:29:58;;;;;;;40.47;30.13;;;8.60;99.90;;;;;;5016658;28;20550;-82
2021/05/07 05:32:24;;;;;;;45.50;32.65;;;8.60;99.90;;;;;;5016208;28;20092;-82
2021/05/07 05:34:51;;;;;;;42.38;30.83;;;8.80;99.90;;;;;;5015891;28;20140;-77
2021/05/07 05:37:19;;;;;;;42.00;30.48;;;8.90;99.90;;;;;;5014625;28;20049;-79
2021/05/07 05:39:45;;;;;;;41.55;31.20;;;8.90;99.90;;;;;;5015622;28;20402;-78
2021/05/07 05:42:11;;;;;;;46.95;34.30;;;9.00;99.90;;;;;;5014839;28;20096;-79
2021/05/07 05:44:38;;;;;;;45.58;33.22;;;8.90;99.90;;;;;;5015083;28;20138;-79
2021/05/07 05:47:04;;;;;;;44.30;31.50;;;8.80;99.90;;;;;;5015296;28;20101;-79
2021/05/07 05:49:31;;;;;;;46.53;33.08;;;8.80;99.90;;;;;;5015959;28;20505;-78
2021/05/07 05:51:57;;;;;;;44.53;32.30;;;8.60;99.90;;;;;;5016161;28;20104;-80
2021/05/07 05:54:24;;;;;;;45.28;33.17;;;8.60;99.90;;;;;;5014819;28;20046;-79
2021/05/07 05:56:51;;;;;;;50.33;33.45;;;8.50;99.90;;;;;;5014853;28;20570;-77
2021/05/07 05:59:17;;;;;;;47.53;33.25;;;8.40;99.90;;;;;;5014206;28;20069;-77
2021/05/07 06:01:43;;;;;;;52.28;34.10;;;8.20;99.90;;;;;;5014292;28;20140;-76
2021/05/07 06:04:11;;;;;;;50.17;34.70;;;8.10;99.90;;;;;;5014085;28;20530;-76
2021/05/07 06:06:38;;;;;;;47.13;32.40;;;7.80;99.90;;;;;;5013948;28;20057;-76
2021/05/07 06:09:05;;;;;;;43.88;28.55;;;7.60;99.90;;;;;;5014024;28;20443;-78
2021/05/07 06:11:32;;;;;;;39.00;25.33;;;7.20;99.90;;;;;;5015485;28;20454;-77
2021/05/07 06:13:59;;;;;;;35.53;22.88;;;6.90;99.90;;;;;;5015594;28;20137;-76
2021/05/07 06:16:25;;;;;;;27.83;19.48;;;6.70;99.90;;;;;;5014118;28;20054;-78
2021/05/07 06:18:51;;;;;;;27.35;19.17;;;6.50;99.90;;;;;;5013773;28;20128;-76
2021/05/07 06:21:18;;;;;;;29.05;20.00;;;6.50;99.90;;;;;;5014179;28;20060;-76
2021/05/07 06:23:44;;;;;;;27.40;19.20;;;6.50;99.90;;;;;;5015055;28;20050;-77
2021/05/07 06:26:10;;;;;;;29.40;20.00;;;6.50;99.90;;;;;;5013917;28;20140;-77
2021/05/07 06:28:38;;;;;;;29.77;21.15;;;6.50;99.90;;;;;;5014278;28;20050;-77
2021/05/07 06:31:04;;;;;;;28.13;20.42;;;6.40;99.90;;;;;;5015032;28;20085;-77
2021/05/07 06:33:30;;;;;;;28.35;20.58;;;6.50;99.90;;;;;;5014487;28;20058;-78
2021/05/07 06:35:57;;;;;;;27.58;20.08;;;6.50;99.90;;;;;;5014399;28;20128;-76
2021/05/07 06:38:23;;;;;;;30.08;21.25;;;6.50;99.90;;;;;;5016014;28;20538;-77
2021/05/07 06:40:50;;;;;;;29.00;19.75;;;6.50;99.90;;;;;;5014626;28;20137;-78
2021/05/07 06:43:16;;;;;;;26.80;19.52;;;6.50;99.90;;;;;;5017146;28;20113;-78
2021/05/07 06:45:44;;;;;;;27.40;19.98;;;6.60;99.90;;;;;;5016734;28;20045;-78
2021/05/07 06:48:10;;;;;;;27.60;19.35;;;6.70;99.90;;;;;;5015007;28;20580;-78
2021/05/07 06:50:38;;;;;;;27.25;19.65;;;6.70;99.90;;;;;;5014298;28;20052;-78
2021/05/07 06:53:04;;;;;;;27.35;19.75;;;6.70;99.90;;;;;;5012882;28;20051;-79
2021/05/07 06:55:31;;;;;;;24.73;18.60;;;6.80;99.90;;;;;;5012574;28;20050;-78
2021/05/07 06:57:57;;;;;;;26.42;18.80;;;6.80;99.90;;;;;;5012313;28;20500;-78
2021/05/07 07:00:24;;;;;;;27.23;18.98;;;6.90;99.90;;;;;;5012515;28;20481;-78
2021/05/07 07:02:51;;;;;;;29.23;19.73;;;7.00;99.90;;;;;;5011836;28;20061;-77
2021/05/07 07:05:17;;;;;;;25.52;19.17;;;7.00;99.90;;;;;;5012511;28;20109;-75
2021/05/07 07:07:44;;;;;;;24.95;19.13;;;7.10;99.90;;;;;;5012535;28;20475;-78
2021/05/07 07:10:11;;;;;;;24.65;18.55;;;7.20;99.90;;;;;;5012699;28;20129;-78
2021/05/07 07:12:40;;;;;;;25.77;18.52;;;7.30;99.90;;;;;;5012234;28;20050;-77
2021/05/07 07:15:08;;;;;;;26.65;19.70;;;7.40;99.90;;;;;;5012074;28;20046;-78
2021/05/07 07:17:37;;;;;;;34.67;23.02;;;7.40;99.90;;;;;;5011470;28;20072;-78
2021/05/07 07:20:06;;;;;;;27.73;20.55;;;7.50;99.90;;;;;;5012436;28;20053;-78
2021/05/07 07:22:33;;;;;;;27.90;20.83;;;7.60;99.90;;;;;;5012334;28;20132;-78
2021/05/07 07:24:59;;;;;;;32.17;21.60;;;7.60;99.90;;;;;;5012502;28;20061;-78
2021/05/07 07:27:26;;;;;;;29.52;22.75;;;7.60;99.90;;;;;;5011702;28;20050;-78
2021/05/07 07:29:52;;;;;;;27.73;21.33;;;7.70;99.90;;;;;;5012107;28;20140;-78
2021/05/07 07:32:19;;;;;;;31.27;24.02;;;7.80;99.90;;;;;;5012762;28;20387;-77
2021/05/07 07:34:46;;;;;;;33.03;25.15;;;7.80;99.90;;;;;;5012933;28;20052;-77
2021/05/07 07:37:13;;;;;;;40.38;27.58;;;7.90;99.90;;;;;;5012777;28;20141;-77
2021/05/07 07:39:39;;;;;;;44.53;30.55;;;8.00;99.90;;;;;;5012576;28;20136;-78
2021/05/07 07:42:06;;;;;;;45.08;27.55;;;7.90;99.90;;;;;;5012931;28;20077;-78
2021/05/07 07:44:33;;;;;;;40.67;27.80;;;7.80;99.90;;;;;;5012713;28;20080;-78
2021/05/07 07:47:00;;;;;;;42.58;27.40;;;7.60;99.90;;;;;;5012165;28;20430;-78
2021/05/07 07:49:26;;;;;;;42.95;28.95;;;7.50;99.90;;;;;;5012594;28;20053;-78
2021/05/07 07:51:57;;;;;;;38.40;24.65;;;7.50;99.90;;;;;;5012592;28;20097;-77
2021/05/07 07:54:25;;;;;;;14.93;10.95;;;7.30;99.90;;;;;;5012090;28;20067;-77
2021/05/07 07:56:52;;;;;;;13.25;10.45;;;6.80;99.90;;;;;;5011666;28;20045;-78
2021/05/07 07:59:18;;;;;;;17.00;12.60;;;6.30;99.90;;;;;;5011908;28;20050;-78
2021/05/07 08:01:45;;;;;;;17.40;12.80;;;5.80;99.90;;;;;;5011890;28;20430;-78
2021/05/07 08:04:11;;;;;;;16.55;12.73;;;5.70;99.90;;;;;;5011598;28;20057;-79
2021/05/07 08:06:37;;;;;;;16.27;12.82;;;5.40;99.90;;;;;;5012162;28;20060;-78
2021/05/07 08:09:05;;;;;;;17.05;11.93;;;5.20;99.90;;;;;;5037327;23;20058;-78
2021/05/07 08:11:32;;;;;;;14.07;10.30;;;5.00;99.90;;;;;;5017213;28;20049;-79
2021/05/07 08:13:58;;;;;;;16.58;11.75;;;4.90;99.90;;;;;;5017887;28;20121;-78
2021/05/07 08:16:25;;;;;;;14.65;10.88;;;4.90;99.90;;;;;;5019720;28;20469;-80
2021/05/07 08:18:51;;;;;;;16.55;12.55;;;4.90;99.90;;;;;;5018969;28;20129;-78
2021/05/07 08:21:17;;;;;;;17.80;12.85;;;5.00;99.90;;;;;;5019724;28;20388;-79
2021/05/07 08:23:44;;;;;;;17.58;13.75;;;5.10;99.90;;;;;;5019366;28;20092;-80
2021/05/07 08:26:10;;;;;;;18.67;13.43;;;5.20;99.90;;;;;;5019989;28;20506;-77
2021/05/07 08:28:37;;;;;;;20.05;14.63;;;5.30;99.90;;;;;;5019266;28;20136;-79
2021/05/07 08:31:03;;;;;;;17.83;14.23;;;5.40;99.90;;;;;;5020056;28;20081;-78
2021/05/07 08:33:30;;;;;;;16.35;12.82;;;5.80;99.90;;;;;;5019495;28;20430;-78
2021/05/07 08:35:56;;;;;;;16.30;12.88;;;6.10;99.90;;;;;;5020976;28;20054;-79
2021/05/07 08:38:23;;;;;;;15.82;12.40;;;6.20;99.90;;;;;;5020310;28;20125;-79
2021/05/07 08:40:49;;;;;;;15.88;11.90;;;6.50;99.90;;;;;;5020675;28;20053;-79
2021/05/07 08:43:16;;;;;;;15.18;10.90;;;6.50;99.90;;;;;;5020846;28;20088;-79
2021/05/07 08:45:43;;;;;;;16.08;13.40;;;6.40;99.90;;;;;;5021635;28;20054;-79
2021/05/07 08:48:11;;;;;;;15.82;13.00;;;6.40;99.90;;;;;;5018821;28;20061;-78
2021/05/07 08:50:38;;;;;;;19.98;14.38;;;6.40;99.90;;;;;;5018590;28;20046;-77
2021/05/07 08:53:04;;;;;;;15.98;13.18;;;6.60;99.90;;;;;;5016790;28;20128;-78
2021/05/07 08:55:31;;;;;;;15.30;12.15;;;7.20;99.90;;;;;;5015667;28;20120;-78
2021/05/07 08:57:57;;;;;;;14.05;11.55;;;7.40;99.90;;;;;;5016416;28;20129;-79
2021/05/07 09:00:23;;;;;;;15.38;12.10;;;7.60;99.90;;;;;;5014836;28;20104;-79
2021/05/07 09:02:51;;;;;;;13.82;11.73;;;7.80;99.90;;;;;;5017239;28;20133;-78
2021/05/07 09:05:30;;;;;;;15.32;12.00;;;7.90;99.90;;;;;;5016820;28;20065;-80
2021/05/07 09:07:57;;;;;;;14.18;12.02;;;8.10;99.90;;;;;;5017738;28;20161;-79
2021/05/07 09:10:32;;;;;;;14.90;12.70;;;8.50;99.90;;;;;;5018670;28;20133;-79
2021/05/07 09:12:58;;;;;;;15.23;12.73;;;8.80;99.90;;;;;;5020026;28;20106;-79
2021/05/07 09:15:36;;;;;;;16.92;12.95;;;9.00;99.90;;;;;;5019875;28;20085;-80
2021/05/07 09:18:04;;;;;;;11.60;10.23;;;9.00;99.90;;;;;;5019938;28;20249;-79
2021/05/07 09:20:37;;;;;;;14.25;11.57;;;9.10;99.90;;;;;;5018820;28;20073;-79
2021/05/07 09:23:04;;;;;;;;;;;9.40;99.90;;;;;;5017814;28;20136;-79
2021/05/07 09:25:30;;;;;;;15.95;11.75;;;9.50;99.90;;;;;;5015924;28;20381;-77
2021/05/07 09:28:06;;;;;;;14.10;10.32;;;9.50;99.90;;;;;;5013470;28;20478;-79
2021/05/07 09:30:33;;;;;;;11.95;10.05;;;10.00;99.90;;;;;;5011718;28;20081;-78
2021/05/07 09:32:59;;;;;;;11.45;9.93;;;10.10;99.90;;;;;;5013952;28;20464;-77
2021/05/07 09:35:28;;;;;;;15.90;11.77;;;10.00;99.90;;;;;;5013235;28;20046;-77
2021/05/07 09:37:58;;;;;;;16.95;11.30;;;10.00;99.90;;;;;;5013417;28;20057;-78
2021/05/07 09:40:25;;;;;;;15.20;10.88;;;10.10;99.90;;;;;;5014112;28;20097;-78
2021/05/07 09:43:03;;;;;;;10.77;8.38;;;10.00;99.90;;;;;;5016207;28;20533;-77
2021/05/07 09:45:30;;;;;;;10.15;8.05;;;9.90;99.90;;;;;;5021464;28;20049;-79
2021/05/07 09:47:56;;;;;;;9.02;7.07;;;9.70;99.90;;;;;;5023138;28;20517;-78
2021/05/07 09:50:37;;;;;;;7.68;6.20;;;9.50;99.90;;;;;;5022352;28;20128;-79
2021/05/07 09:53:11;;;;;;;6.05;4.75;;;9.50;99.90;;;;;;5023676;28;20125;-78
2021/05/07 09:55:38;;;;;;;6.28;5.50;;;9.40;99.90;;;;;;5021148;28;20533;-79
2021/05/07 09:58:04;;;;;;;7.93;5.53;;;9.50;99.90;;;;;;5023160;28;20077;-78
2021/05/07 10:00:31;;;;;;;8.15;5.38;;;9.70;99.90;;;;;;5025284;28;20429;-80
2021/05/07 10:03:01;;;;;;;5.45;4.90;;;10.00;99.90;;;;;;5026909;28;20073;-81
2021/05/07 10:05:35;;;;;;;5.90;5.25;;;10.20;99.90;;;;;;5026216;28;20197;-81
2021/05/07 10:08:02;;;;;;;6.97;5.10;;;10.20;99.90;;;;;;5024323;28;20265;-78
2021/05/07 10:10:30;;;;;;;5.85;4.65;;;10.20;99.90;;;;;;5034143;28;20069;-80
2021/05/07 10:13:00;;;;;;;6.25;4.53;;;10.20;99.90;;;;;;5039345;28;20441;-80
2021/05/07 10:15:32;;;;;;;5.55;4.32;;;10.30;99.90;;;;;;5020398;28;20081;-81
2021/05/07 10:17:59;;;;;;;5.57;4.63;;;10.20;99.90;;;;;;5025761;28;20046;-80
2021/05/07 10:20:27;;;;;;;6.13;4.85;;;10.20;99.90;;;;;;5027157;28;20045;-80
2021/05/07 10:22:54;;;;;;;5.85;4.70;;;10.00;99.90;;;;;;5029711;28;20136;-80
2021/05/07 10:25:23;;;;;;;6.53;5.00;;;9.90;99.90;;;;;;5022796;28;20050;-79
2021/05/07 10:27:52;;;;;;;8.25;5.13;;;10.00;99.90;;;;;;5020525;28;20053;-80
2021/05/07 10:30:24;;;;;;;7.43;4.75;;;10.30;99.90;;;;;;5021782;28;20517;-82
2021/05/07 10:33:02;;;;;;;7.32;4.78;;;10.40;99.90;;;;;;5033274;28;20162;-79
2021/05/07 10:35:30;;;;;;;7.22;5.15;;;10.20;99.90;;;;;;5039949;28;20060;-80
2021/05/07 10:38:14;;;;;;;5.88;4.90;;;10.20;99.90;;;;;;5040020;28;20069;-81
2021/05/07 10:40:42;;;;;;;6.47;5.22;;;10.50;99.90;;;;;;5038900;28;20077;-79
2021/05/07 10:43:09;;;;;;;6.38;4.47;;;10.60;99.90;;;;;;5036410;28;20143;-79
2021/05/07 10:45:44;;;;;;;6.15;4.45;;;10.60;99.90;;;;;;5036182;28;20096;-78
2021/05/07 10:48:21;;;;;;;5.63;4.20;;;10.80;99.90;;;;;;5036937;28;20057;-79
2021/05/07 10:50:51;;;;;;;5.07;3.45;;;11.10;99.90;;;;;;5036949;28;20276;-79
2021/05/07 10:53:37;;;;;;;4.50;3.67;;;11.30;99.90;;;;;;5036704;28;20050;-78
2021/05/07 10:56:25;;;;;;;5.25;4.13;;;11.40;99.90;;;;;;5049901;28;20072;-82
2021/05/07 10:58:53;;;;;;;5.88;4.60;;;11.50;99.90;;;;;;5036875;28;20057;-79
2021/05/07 11:01:23;;;;;;;5.75;4.40;;;11.40;99.90;;;;;;5037693;28;20075;-80
2021/05/07 11:04:01;;;;;;;5.40;4.78;;;11.30;99.90;;;;;;5038337;28;20056;-80
2021/05/07 11:06:32;;;;;;;7.00;4.75;;;11.00;99.90;;;;;;5036918;28;20080;-80
2021/05/07 11:08:59;;;;;;;4.25;3.83;;;11.20;99.90;;;;;;5036736;28;20073;-79
2021/05/07 11:11:34;;;;;;;7.22;4.30;;;11.40;99.90;;;;;;5022831;28;20050;-79
2021/05/07 11:14:01;;;;;;;7.30;4.30;;;11.40;99.90;;;;;;5016345;28;20050;-80
2021/05/07 11:16:37;;;;;;;5.78;4.22;;;11.20;99.90;;;;;;5018418;28;20128;-79
2021/05/07 11:19:04;;;;;;;5.40;4.40;;;11.20;99.90;;;;;;5018382;28;20141;-79
2021/05/07 11:21:31;;;;;;;6.38;4.43;;;11.30;99.90;;;;;;5018514;28;20054;-81
2021/05/07 11:23:58;;;;;;;5.55;3.70;;;11.30;99.90;;;;;;5018210;28;20132;-78
2021/05/07 11:26:36;;;;;;;6.25;4.00;;;11.40;99.90;;;;;;5018917;28;20085;-81
2021/05/07 11:29:05;;;;;;;7.43;4.40;;;11.60;99.90;;;;;;5021077;28;20046;-79
2021/05/07 11:31:32;;;;;;;6.20;4.38;;;11.80;99.90;;;;;;5021460;28;20396;-78
2021/05/07 11:34:01;;;;;;;6.70;4.53;;;12.10;99.90;;;;;;5031463;28;20056;-84
2021/05/07 11:36:37;;;;;;;5.45;4.32;;;12.20;99.90;;;;;;5031148;28;20076;-80
2021/05/07 11:39:14;;;;;;;4.63;4.13;;;12.40;99.90;;;;;;5030584;28;20053;-85
2021/05/07 11:41:53;;;;;;;7.35;4.30;;;12.40;99.90;;;;;;5037476;28;20097;-84
2021/05/07 11:44:20;;;;;;;5.15;4.18;;;12.40;99.90;;;;;;5037251;28;20065;-81
2021/05/07 11:47:05;;;;;;;6.82;4.72;;;12.40;99.90;;;;;;5039713;28;20046;-81
2021/05/07 11:49:32;;;;;;;6.72;5.05;;;12.20;99.90;;;;;;5037655;28;20045;-80
2021/05/07 11:52:06;;;;;;;6.30;4.95;;;12.10;99.90;;;;;;5035530;28;20077;-79
2021/05/07 11:54:46;;;;;;;7.80;5.20;;;11.90;99.90;;;;;;5029190;28;20428;-80
2021/05/07 11:57:20;;;;;;;8.00;5.30;;;11.70;99.90;;;;;;5029078;28;20057;-80
2021/05/07 11:59:48;;;;;;;5.60;4.88;;;11.60;99.90;;;;;;5029573;28;20042;-80
2021/05/07 12:02:25;;;;;;;6.72;5.18;;;11.60;99.90;;;;;;5030666;28;20533;-80
2021/05/07 12:04:57;;;;;;;7.60;5.00;;;11.80;99.90;;;;;;5030174;28;20053;-79
2021/05/07 12:07:26;;;;;;;6.57;5.40;;;12.00;99.90;;;;;;5019921;28;20117;-80
2021/05/07 12:09:56;;;;;;;7.60;5.47;;;12.00;99.90;;;;;;5021185;28;20053;-79
2021/05/07 12:12:27;;;;;;;6.50;5.53;;;11.90;99.90;;;;;;5014837;28;20487;-79
2021/05/07 12:15:01;;;;;;;6.80;5.70;;;11.90;99.90;;;;;;5023105;28;20054;-79
2021/05/07 12:17:41;;;;;;;7.25;5.03;;;12.10;99.90;;;;;;5015762;28;20157;-79
2021/05/07 12:20:08;;;;;;;5.68;5.03;;;12.20;99.90;;;;;;5022965;28;20133;-79
2021/05/07 12:22:41;;;;;;;7.95;5.30;;;12.20;99.90;;;;;;5021596;28;20117;-80
2021/05/07 12:25:13;;;;;;;10.65;6.10;;;12.10;99.90;;;;;;5018061;28;20069;-78
2021/05/07 12:27:40;;;;;;;10.15;5.78;;;12.00;99.90;;;;;;5020323;28;20064;-79
2021/05/07 12:30:27;;;;;;;8.00;5.80;;;11.90;99.90;;;;;;5020598;28;20073;-81
2021/05/07 12:32:55;;;;;;;7.43;6.25;;;11.80;99.90;;;;;;5020380;28;20085;-81
2021/05/07 12:35:22;;;;;;;7.32;5.70;;;11.80;99.90;;;;;;5019042;28;20050;-80
2021/05/07 12:37:49;;;;;;;7.30;5.60;;;11.90;99.90;;;;;;5018834;28;20477;-81
2021/05/07 12:40:16;;;;;;;8.65;5.60;;;12.10;99.90;;;;;;5017831;28;20061;-79
2021/05/07 12:42:44;;;;;;;6.45;5.72;;;12.10;99.90;;;;;;5016226;28;20077;-79
2021/05/07 12:45:13;;;;;;;9.32;5.28;;;12.00;99.90;;;;;;5014196;28;20117;-77